sensor_id;sensor_type;location;lat;lon;timestamp;P1;durP1;ratioP1;P2;durP2;ratioP2
2544;SDS011;36212;48.838;9.142;2023-10-13T00:01:38;8.40;;;7.70;;
2544;SDS011;36212;48.838;9.142;2023-10-13T00:04:10;9.73;;;8.73;;
2544;SDS011;36212;48.838;9.142;2023-10-13T00:06:44;10.67;;;8.87;;
2544;SDS011;36212;48.838;9.142;2023-10-13T00:09:18;9.40;;;8.60;;
2544;SDS011;36212;48.838;9.142;2023-10-13T00:12:00;8.30;;;7.57;;
2544;SDS011;36212;48.838;9.142;2023-10-13T00:14:39;8.80;;;7.83;;
2544;SDS011;36212;48.838;9.142;2023-10-13T00:17:21;8.00;;;7.40;;
2544;SDS011;36212;48.838;9.142;2023-10-13T00:19:57;9.10;;;8.30;;
2544;SDS011;36212;48.838;9.142;2023-10-13T00:22:41;7.87;;;7.27;;
2544;SDS011;36212;48.838;9.142;2023-10-13T00:25:14;7.80;;;7.20;;
2544;SDS011;36212;48.838;9.142;2023-10-13T00:28:13;7.97;;;7.37;;
2544;SDS011;36212;48.838;9.142;2023-10-13T00:30:57;7.57;;;6.87;;
2544;SDS011;36212;48.838;9.142;2023-10-13T00:33:40;8.50;;;7.30;;
2544;SDS011;36212;48.838;9.142;2023-10-13T00:36:17;7.57;;;6.97;;
2544;SDS011;36212;48.838;9.142;2023-10-13T00:38:51;7.57;;;6.97;;
2544;SDS011;36212;48.838;9.142;2023-10-13T00:41:26;7.97;;;7.37;;
2544;SDS011;36212;48.838;9.142;2023-10-13T00:44:22;8.00;;;7.20;;
2544;SDS011;36212;48.838;9.142;2023-10-13T00:47:18;10.93;;;7.87;;
2544;SDS011;36212;48.838;9.142;2023-10-13T00:50:09;7.73;;;6.70;;
2544;SDS011;36212;48.838;9.142;2023-10-13T00:52:48;6.40;;;5.97;;
2544;SDS011;36212;48.838;9.142;2023-10-13T00:55:22;7.43;;;6.93;;
2544;SDS011;36212;48.838;9.142;2023-10-13T00:57:57;8.10;;;7.30;;
2544;SDS011;36212;48.838;9.142;2023-10-13T01:00:34;7.87;;;7.27;;
2544;SDS011;36212;48.838;9.142;2023-10-13T01:03:26;9.70;;;8.70;;
2544;SDS011;36212;48.838;9.142;2023-10-13T01:05:58;6.80;;;6.40;;
2544;SDS011;36212;48.838;9.142;2023-10-13T01:08:33;7.30;;;6.23;;
2544;SDS011;36212;48.838;9.142;2023-10-13T01:11:19;8.70;;;7.53;;
2544;SDS011;36212;48.838;9.142;2023-10-13T01:13:57;8.13;;;7.47;;
2544;SDS011;36212;48.838;9.142;2023-10-13T01:21:19;6.70;;;6.30;;
2544;SDS011;36212;48.838;9.142;2023-10-13T01:23:58;7.50;;;7.03;;
2544;SDS011;36212;48.838;9.142;2023-10-13T01:26:39;8.03;;;7.23;;
2544;SDS011;36212;48.838;9.142;2023-10-13T01:29:22;7.77;;;7.10;;
2544;SDS011;36212;48.838;9.142;2023-10-13T01:32:01;8.37;;;7.53;;
2544;SDS011;36212;48.838;9.142;2023-10-13T01:34:34;8.33;;;7.53;;
2544;SDS011;36212;48.838;9.142;2023-10-13T01:37:07;8.33;;;7.63;;
2544;SDS011;36212;48.838;9.142;2023-10-13T01:39:42;7.40;;;6.70;;
2544;SDS011;36212;48.838;9.142;2023-10-13T01:42:20;7.23;;;6.73;;
2544;SDS011;36212;48.838;9.142;2023-10-13T01:44:55;8.00;;;7.47;;
2544;SDS011;36212;48.838;9.142;2023-10-13T01:47:36;8.27;;;7.57;;
2544;SDS011;36212;48.838;9.142;2023-10-13T01:50:10;7.43;;;6.83;;
2544;SDS011;36212;48.838;9.142;2023-10-13T01:52:57;7.23;;;6.73;;
2544;SDS011;36212;48.838;9.142;2023-10-13T01:55:48;7.70;;;7.10;;
2544;SDS011;36212;48.838;9.142;2023-10-13T01:58:27;7.60;;;6.90;;
2544;SDS011;36212;48.838;9.142;2023-10-13T02:01:02;8.33;;;7.53;;
2544;SDS011;36212;48.838;9.142;2023-10-13T02:03:40;7.27;;;6.60;;
2544;SDS011;36212;48.838;9.142;2023-10-13T02:06:23;8.20;;;7.60;;
2544;SDS011;36212;48.838;9.142;2023-10-13T02:09:08;7.80;;;7.30;;
2544;SDS011;36212;48.838;9.142;2023-10-13T02:11:57;8.00;;;7.43;;
2544;SDS011;36212;48.838;9.142;2023-10-13T02:14:30;8.03;;;7.33;;
2544;SDS011;36212;48.838;9.142;2023-10-13T02:17:06;8.70;;;7.90;;
2544;SDS011;36212;48.838;9.142;2023-10-13T02:19:46;7.93;;;7.20;;
2544;SDS011;36212;48.838;9.142;2023-10-13T02:25:40;7.27;;;6.67;;
2544;SDS011;36212;48.838;9.142;2023-10-13T02:28:22;7.90;;;7.40;;
2544;SDS011;36212;48.838;9.142;2023-10-13T02:31:03;7.83;;;7.33;;
2544;SDS011;36212;48.838;9.142;2023-10-13T02:33:38;8.37;;;7.50;;
2544;SDS011;36212;48.838;9.142;2023-10-13T02:36:17;8.10;;;7.40;;
2544;SDS011;36212;48.838;9.142;2023-10-13T02:39:06;7.30;;;6.70;;
2544;SDS011;36212;48.838;9.142;2023-10-13T02:41:46;8.93;;;8.03;;
2544;SDS011;36212;48.838;9.142;2023-10-13T02:44:26;7.60;;;7.10;;
2544;SDS011;36212;48.838;9.142;2023-10-13T02:47:02;7.70;;;7.13;;
2544;SDS011;36212;48.838;9.142;2023-10-13T02:49:50;8.47;;;7.77;;
2544;SDS011;36212;48.838;9.142;2023-10-13T02:52:23;7.87;;;7.27;;
2544;SDS011;36212;48.838;9.142;2023-10-13T02:54:59;8.13;;;7.50;;
2544;SDS011;36212;48.838;9.142;2023-10-13T02:57:40;8.00;;;6.70;;
2544;SDS011;36212;48.838;9.142;2023-10-13T03:00:13;8.13;;;7.33;;
2544;SDS011;36212;48.838;9.142;2023-10-13T03:02:53;7.87;;;7.27;;
2544;SDS011;36212;48.838;9.142;2023-10-13T03:05:34;7.53;;;6.83;;
2544;SDS011;36212;48.838;9.142;2023-10-13T03:08:12;7.60;;;7.10;;
2544;SDS011;36212;48.838;9.142;2023-10-13T03:10:56;8.50;;;7.70;;
2544;SDS011;36212;48.838;9.142;2023-10-13T03:13:31;7.70;;;7.00;;
2544;SDS011;36212;48.838;9.142;2023-10-13T03:16:11;8.53;;;7.17;;
2544;SDS011;36212;48.838;9.142;2023-10-13T03:18:49;8.20;;;7.40;;
2544;SDS011;36212;48.838;9.142;2023-10-13T03:21:29;7.63;;;7.00;;
2544;SDS011;36212;48.838;9.142;2023-10-13T03:24:02;7.93;;;7.37;;
2544;SDS011;36212;48.838;9.142;2023-10-13T03:26:43;7.60;;;7.00;;
2544;SDS011;36212;48.838;9.142;2023-10-13T03:29:24;7.90;;;7.20;;
2544;SDS011;36212;48.838;9.142;2023-10-13T03:32:03;8.07;;;7.27;;
2544;SDS011;36212;48.838;9.142;2023-10-13T03:34:46;7.77;;;7.17;;
2544;SDS011;36212;48.838;9.142;2023-10-13T03:37:38;10.53;;;8.03;;
2544;SDS011;36212;48.838;9.142;2023-10-13T03:40:12;7.70;;;7.30;;
2544;SDS011;36212;48.838;9.142;2023-10-13T03:43:10;7.40;;;6.70;;
2544;SDS011;36212;48.838;9.142;2023-10-13T03:45:44;7.80;;;7.20;;
2544;SDS011;36212;48.838;9.142;2023-10-13T03:48:30;7.40;;;6.90;;
2544;SDS011;36212;48.838;9.142;2023-10-13T03:51:10;7.60;;;7.00;;
2544;SDS011;36212;48.838;9.142;2023-10-13T03:53:47;9.07;;;8.20;;
2544;SDS011;36212;48.838;9.142;2023-10-13T03:56:27;8.50;;;7.80;;
2544;SDS011;36212;48.838;9.142;2023-10-13T03:59:12;8.13;;;7.60;;
2544;SDS011;36212;48.838;9.142;2023-10-13T04:01:48;7.90;;;7.20;;
2544;SDS011;36212;48.838;9.142;2023-10-13T04:04:33;7.30;;;6.90;;
2544;SDS011;36212;48.838;9.142;2023-10-13T04:07:21;8.03;;;7.23;;
2544;SDS011;36212;48.838;9.142;2023-10-13T04:10:33;7.70;;;7.10;;
2544;SDS011;36212;48.838;9.142;2023-10-13T04:13:38;8.13;;;7.63;;
2544;SDS011;36212;48.838;9.142;2023-10-13T04:16:56;7.47;;;6.73;;
2544;SDS011;36212;48.838;9.142;2023-10-13T04:19:42;8.20;;;7.50;;
2544;SDS011;36212;48.838;9.142;2023-10-13T04:22:53;8.23;;;7.40;;
2544;SDS011;36212;48.838;9.142;2023-10-13T04:25:37;9.97;;;7.67;;
2544;SDS011;36212;48.838;9.142;2023-10-13T04:28:35;8.80;;;7.75;;
2544;SDS011;36212;48.838;9.142;2023-10-13T04:31:21;10.40;;;7.07;;
2544;SDS011;36212;48.838;9.142;2023-10-13T04:34:16;8.00;;;7.30;;
2544;SDS011;36212;48.838;9.142;2023-10-13T04:36:59;7.10;;;6.37;;
2544;SDS011;36212;48.838;9.142;2023-10-13T04:39:59;8.53;;;7.73;;
2544;SDS011;36212;48.838;9.142;2023-10-13T04:42:55;8.43;;;7.63;;
2544;SDS011;36212;48.838;9.142;2023-10-13T04:45:58;8.20;;;7.50;;
2544;SDS011;36212;48.838;9.142;2023-10-13T04:49:13;9.15;;;8.45;;
2544;SDS011;36212;48.838;9.142;2023-10-13T04:52:20;7.67;;;7.07;;
2544;SDS011;36212;48.838;9.142;2023-10-13T04:55:33;7.30;;;6.90;;
2544;SDS011;36212;48.838;9.142;2023-10-13T04:58:40;7.85;;;7.35;;
2544;SDS011;36212;48.838;9.142;2023-10-13T05:01:49;7.80;;;7.30;;
2544;SDS011;36212;48.838;9.142;2023-10-13T05:05:00;8.77;;;8.02;;
2544;SDS011;36212;48.838;9.142;2023-10-13T05:08:13;8.03;;;7.40;;
2544;SDS011;36212;48.838;9.142;2023-10-13T05:11:23;8.63;;;7.93;;
2544;SDS011;36212;48.838;9.142;2023-10-13T05:18:13;11.00;;;7.13;;
2544;SDS011;36212;48.838;9.142;2023-10-13T05:21:24;7.90;;;7.18;;
2544;SDS011;36212;48.838;9.142;2023-10-13T05:24:37;8.10;;;7.53;;
2544;SDS011;36212;48.838;9.142;2023-10-13T05:27:49;7.97;;;7.43;;
2544;SDS011;36212;48.838;9.142;2023-10-13T05:31:13;8.55;;;7.85;;
2544;SDS011;36212;48.838;9.142;2023-10-13T05:34:24;9.60;;;8.68;;
2544;SDS011;36212;48.838;9.142;2023-10-13T05:37:36;8.98;;;7.90;;
2544;SDS011;36212;48.838;9.142;2023-10-13T05:40:56;8.85;;;8.25;;
2544;SDS011;36212;48.838;9.142;2023-10-13T05:44:16;8.30;;;7.70;;
2544;SDS011;36212;48.838;9.142;2023-10-13T05:47:17;8.13;;;7.38;;
2544;SDS011;36212;48.838;9.142;2023-10-13T05:50:17;9.23;;;8.38;;
2544;SDS011;36212;48.838;9.142;2023-10-13T05:53:12;8.73;;;8.03;;
2544;SDS011;36212;48.838;9.142;2023-10-13T05:56:11;9.75;;;8.55;;
2544;SDS011;36212;48.838;9.142;2023-10-13T05:59:43;8.73;;;8.10;;
2544;SDS011;36212;48.838;9.142;2023-10-13T06:02:56;8.48;;;7.72;;
2544;SDS011;36212;48.838;9.142;2023-10-13T06:06:07;8.00;;;7.45;;
2544;SDS011;36212;48.838;9.142;2023-10-13T06:09:30;9.00;;;7.80;;
2544;SDS011;36212;48.838;9.142;2023-10-13T06:12:56;7.90;;;7.30;;
2544;SDS011;36212;48.838;9.142;2023-10-13T06:16:08;7.83;;;7.27;;
2544;SDS011;36212;48.838;9.142;2023-10-13T06:19:23;7.93;;;7.43;;
2544;SDS011;36212;48.838;9.142;2023-10-13T06:22:34;9.07;;;8.27;;
2544;SDS011;36212;48.838;9.142;2023-10-13T06:25:52;7.80;;;7.20;;
2544;SDS011;36212;48.838;9.142;2023-10-13T06:29:04;7.60;;;7.10;;
2544;SDS011;36212;48.838;9.142;2023-10-13T06:31:39;8.47;;;7.73;;
2544;SDS011;36212;48.838;9.142;2023-10-13T06:34:19;9.97;;;7.40;;
2544;SDS011;36212;48.838;9.142;2023-10-13T06:37:07;7.93;;;7.20;;
2544;SDS011;36212;48.838;9.142;2023-10-13T06:40:03;9.43;;;7.77;;
2544;SDS011;36212;48.838;9.142;2023-10-13T06:43:04;8.63;;;7.63;;
2544;SDS011;36212;48.838;9.142;2023-10-13T06:45:54;8.10;;;7.50;;
2544;SDS011;36212;48.838;9.142;2023-10-13T06:48:33;9.03;;;8.33;;
2544;SDS011;36212;48.838;9.142;2023-10-13T06:51:12;7.90;;;7.20;;
2544;SDS011;36212;48.838;9.142;2023-10-13T06:53:55;7.87;;;7.17;;
2544;SDS011;36212;48.838;9.142;2023-10-13T06:56:30;8.07;;;7.43;;
2544;SDS011;36212;48.838;9.142;2023-10-13T06:59:09;7.90;;;7.20;;
2544;SDS011;36212;48.838;9.142;2023-10-13T07:01:46;8.60;;;7.70;;
2544;SDS011;36212;48.838;9.142;2023-10-13T07:04:24;9.00;;;8.30;;
2544;SDS011;36212;48.838;9.142;2023-10-13T07:06:59;9.23;;;8.43;;
2544;SDS011;36212;48.838;9.142;2023-10-13T07:09:36;9.10;;;8.33;;
2544;SDS011;36212;48.838;9.142;2023-10-13T07:12:20;8.17;;;7.43;;
2544;SDS011;36212;48.838;9.142;2023-10-13T07:15:04;9.30;;;7.00;;
2544;SDS011;36212;48.838;9.142;2023-10-13T07:17:57;8.40;;;7.70;;
2544;SDS011;36212;48.838;9.142;2023-10-13T07:20:36;8.33;;;7.53;;
2544;SDS011;36212;48.838;9.142;2023-10-13T07:23:19;7.27;;;6.77;;
2544;SDS011;36212;48.838;9.142;2023-10-13T07:25:56;9.37;;;8.47;;
2544;SDS011;36212;48.838;9.142;2023-10-13T07:28:36;7.97;;;7.27;;
2544;SDS011;36212;48.838;9.142;2023-10-13T07:31:14;8.50;;;7.90;;
2544;SDS011;36212;48.838;9.142;2023-10-13T07:33:51;7.67;;;6.97;;
2544;SDS011;36212;48.838;9.142;2023-10-13T07:36:35;7.57;;;6.87;;
2544;SDS011;36212;48.838;9.142;2023-10-13T07:39:23;6.90;;;6.40;;
2544;SDS011;36212;48.838;9.142;2023-10-13T07:42:00;7.63;;;6.93;;
2544;SDS011;36212;48.838;9.142;2023-10-13T07:44:51;6.40;;;5.90;;
2544;SDS011;36212;48.838;9.142;2023-10-13T07:47:28;7.20;;;6.57;;
2544;SDS011;36212;48.838;9.142;2023-10-13T07:50:09;8.17;;;7.47;;
2544;SDS011;36212;48.838;9.142;2023-10-13T07:52:55;7.40;;;6.70;;
2544;SDS011;36212;48.838;9.142;2023-10-13T07:55:54;6.80;;;6.40;;
2544;SDS011;36212;48.838;9.142;2023-10-13T07:58:36;10.30;;;7.53;;
2544;SDS011;36212;48.838;9.142;2023-10-13T08:01:37;8.70;;;8.00;;
2544;SDS011;36212;48.838;9.142;2023-10-13T08:04:26;8.13;;;7.33;;
2544;SDS011;36212;48.838;9.142;2023-10-13T08:07:01;6.93;;;6.53;;
2544;SDS011;36212;48.838;9.142;2023-10-13T08:09:59;7.40;;;6.80;;
2544;SDS011;36212;48.838;9.142;2023-10-13T08:12:41;11.93;;;7.67;;
2544;SDS011;36212;48.838;9.142;2023-10-13T08:15:26;8.83;;;7.87;;
2544;SDS011;36212;48.838;9.142;2023-10-13T08:18:15;7.90;;;7.30;;
2544;SDS011;36212;48.838;9.142;2023-10-13T08:21:13;8.37;;;7.60;;
2544;SDS011;36212;48.838;9.142;2023-10-13T08:23:55;7.70;;;7.20;;
2544;SDS011;36212;48.838;9.142;2023-10-13T08:26:30;7.67;;;7.07;;
2544;SDS011;36212;48.838;9.142;2023-10-13T08:29:31;7.50;;;7.00;;
2544;SDS011;36212;48.838;9.142;2023-10-13T08:32:46;7.80;;;7.10;;
2544;SDS011;36212;48.838;9.142;2023-10-13T08:35:29;7.33;;;6.83;;
2544;SDS011;36212;48.838;9.142;2023-10-13T08:38:06;7.80;;;7.00;;
2544;SDS011;36212;48.838;9.142;2023-10-13T08:41:23;7.73;;;6.80;;
2544;SDS011;36212;48.838;9.142;2023-10-13T08:44:01;9.90;;;8.10;;
2544;SDS011;36212;48.838;9.142;2023-10-13T09:26:44;8.90;;;6.60;;
2544;SDS011;36212;48.838;9.142;2023-10-13T09:29:28;7.00;;;6.50;;
2544;SDS011;36212;48.838;9.142;2023-10-13T09:32:27;8.20;;;6.80;;
2544;SDS011;36212;48.838;9.142;2023-10-13T09:35:20;7.37;;;6.63;;
2544;SDS011;36212;48.838;9.142;2023-10-13T09:38:10;6.67;;;6.13;;
2544;SDS011;36212;48.838;9.142;2023-10-13T09:40:46;7.43;;;6.67;;
2544;SDS011;36212;48.838;9.142;2023-10-13T09:43:48;7.40;;;6.30;;
2544;SDS011;36212;48.838;9.142;2023-10-13T09:46:37;12.23;;;7.17;;
2544;SDS011;36212;48.838;9.142;2023-10-13T09:49:21;7.17;;;6.70;;
2544;SDS011;36212;48.838;9.142;2023-10-13T09:52:20;7.37;;;6.83;;
2544;SDS011;36212;48.838;9.142;2023-10-13T09:55:21;7.30;;;6.67;;
2544;SDS011;36212;48.838;9.142;2023-10-13T09:58:08;7.80;;;6.97;;
2544;SDS011;36212;48.838;9.142;2023-10-13T10:00:52;7.50;;;6.80;;
2544;SDS011;36212;48.838;9.142;2023-10-13T10:04:08;6.93;;;6.43;;
2544;SDS011;36212;48.838;9.142;2023-10-13T10:06:56;7.40;;;6.77;;
2544;SDS011;36212;48.838;9.142;2023-10-13T10:09:56;7.10;;;6.37;;
2544;SDS011;36212;48.838;9.142;2023-10-13T10:12:55;7.07;;;6.57;;
2544;SDS011;36212;48.838;9.142;2023-10-13T10:15:46;7.10;;;6.63;;
2544;SDS011;36212;48.838;9.142;2023-10-13T10:18:41;6.60;;;6.20;;
2544;SDS011;36212;48.838;9.142;2023-10-13T10:21:15;7.17;;;6.60;;
2544;SDS011;36212;48.838;9.142;2023-10-13T10:24:20;6.23;;;5.73;;
2544;SDS011;36212;48.838;9.142;2023-10-13T10:27:07;8.20;;;5.90;;
2544;SDS011;36212;48.838;9.142;2023-10-13T10:29:59;7.10;;;6.50;;
2544;SDS011;36212;48.838;9.142;2023-10-13T10:32:56;5.67;;;5.37;;
2544;SDS011;36212;48.838;9.142;2023-10-13T10:35:46;6.87;;;6.27;;
2544;SDS011;36212;48.838;9.142;2023-10-13T10:38:36;9.60;;;6.30;;
2544;SDS011;36212;48.838;9.142;2023-10-13T10:41:29;6.63;;;6.17;;
2544;SDS011;36212;48.838;9.142;2023-10-13T10:44:40;6.87;;;6.17;;
2544;SDS011;36212;48.838;9.142;2023-10-13T10:47:19;7.90;;;6.80;;
2544;SDS011;36212;48.838;9.142;2023-10-13T10:50:24;7.10;;;6.50;;
2544;SDS011;36212;48.838;9.142;2023-10-13T10:53:11;7.33;;;6.10;;
2544;SDS011;36212;48.838;9.142;2023-10-13T11:00:42;7.40;;;6.90;;
2544;SDS011;36212;48.838;9.142;2023-10-13T11:06:55;6.70;;;6.20;;
2544;SDS011;36212;48.838;9.142;2023-10-13T11:09:29;9.77;;;7.13;;
2544;SDS011;36212;48.838;9.142;2023-10-13T11:12:15;6.57;;;6.10;;
2544;SDS011;36212;48.838;9.142;2023-10-13T11:15:03;7.17;;;6.57;;
2544;SDS011;36212;48.838;9.142;2023-10-13T11:18:14;8.47;;;6.20;;
2544;SDS011;36212;48.838;9.142;2023-10-13T11:21:04;7.13;;;6.43;;
2544;SDS011;36212;48.838;9.142;2023-10-13T11:27:19;7.70;;;5.90;;
2544;SDS011;36212;48.838;9.142;2023-10-13T11:30:32;7.20;;;6.60;;
2544;SDS011;36212;48.838;9.142;2023-10-13T11:33:11;6.77;;;6.00;;
2544;SDS011;36212;48.838;9.142;2023-10-13T11:35:55;6.53;;;5.87;;
2544;SDS011;36212;48.838;9.142;2023-10-13T11:38:44;7.37;;;6.77;;
2544;SDS011;36212;48.838;9.142;2023-10-13T11:41:28;7.40;;;6.70;;
2544;SDS011;36212;48.838;9.142;2023-10-13T11:44:21;8.00;;;7.00;;
2544;SDS011;36212;48.838;9.142;2023-10-13T11:47:13;6.60;;;6.20;;
2544;SDS011;36212;48.838;9.142;2023-10-13T11:50:32;7.00;;;6.33;;
2544;SDS011;36212;48.838;9.142;2023-10-13T11:53:06;7.90;;;7.20;;
2544;SDS011;36212;48.838;9.142;2023-10-13T11:55:42;7.23;;;6.50;;
2544;SDS011;36212;48.838;9.142;2023-10-13T11:58:16;8.13;;;6.20;;
2544;SDS011;36212;48.838;9.142;2023-10-13T12:00:49;6.80;;;6.20;;
2544;SDS011;36212;48.838;9.142;2023-10-13T12:03:35;6.90;;;6.30;;
2544;SDS011;36212;48.838;9.142;2023-10-13T12:06:46;8.37;;;6.13;;
2544;SDS011;36212;48.838;9.142;2023-10-13T12:09:33;7.03;;;6.43;;
2544;SDS011;36212;48.838;9.142;2023-10-13T12:12:37;7.70;;;6.80;;
2544;SDS011;36212;48.838;9.142;2023-10-13T12:15:17;6.67;;;6.17;;
2544;SDS011;36212;48.838;9.142;2023-10-13T12:18:27;6.60;;;6.10;;
2544;SDS011;36212;48.838;9.142;2023-10-13T12:21:42;9.00;;;6.50;;
2544;SDS011;36212;48.838;9.142;2023-10-13T12:24:31;7.23;;;6.50;;
2544;SDS011;36212;48.838;9.142;2023-10-13T12:27:27;7.13;;;6.20;;
2544;SDS011;36212;48.838;9.142;2023-10-13T12:30:26;7.20;;;6.67;;
2544;SDS011;36212;48.838;9.142;2023-10-13T12:33:25;9.10;;;6.67;;
2544;SDS011;36212;48.838;9.142;2023-10-13T12:36:11;6.90;;;5.80;;
2544;SDS011;36212;48.838;9.142;2023-10-13T12:39:17;6.37;;;5.77;;
2544;SDS011;36212;48.838;9.142;2023-10-13T12:42:36;6.67;;;6.23;;
2544;SDS011;36212;48.838;9.142;2023-10-13T12:45:51;13.63;;;6.33;;
2544;SDS011;36212;48.838;9.142;2023-10-13T12:49:08;6.90;;;6.40;;
2544;SDS011;36212;48.838;9.142;2023-10-13T12:52:21;7.27;;;6.37;;
2544;SDS011;36212;48.838;9.142;2023-10-13T12:55:17;6.63;;;6.03;;
2544;SDS011;36212;48.838;9.142;2023-10-13T12:58:11;6.03;;;5.50;;
2544;SDS011;36212;48.838;9.142;2023-10-13T13:01:01;7.23;;;5.90;;
2544;SDS011;36212;48.838;9.142;2023-10-13T13:03:53;6.90;;;6.30;;
2544;SDS011;36212;48.838;9.142;2023-10-13T13:06:43;7.43;;;6.20;;
2544;SDS011;36212;48.838;9.142;2023-10-13T13:09:35;6.40;;;5.80;;
2544;SDS011;36212;48.838;9.142;2023-10-13T13:12:21;6.30;;;5.80;;
2544;SDS011;36212;48.838;9.142;2023-10-13T13:15:11;7.00;;;6.40;;
2544;SDS011;36212;48.838;9.142;2023-10-13T13:17:58;6.67;;;5.90;;
2544;SDS011;36212;48.838;9.142;2023-10-13T13:20:52;5.77;;;5.27;;
2544;SDS011;36212;48.838;9.142;2023-10-13T13:23:54;5.93;;;5.53;;
2544;SDS011;36212;48.838;9.142;2023-10-13T13:26:34;6.53;;;6.03;;
2544;SDS011;36212;48.838;9.142;2023-10-13T13:29:27;6.30;;;5.83;;
2544;SDS011;36212;48.838;9.142;2023-10-13T13:32:12;6.70;;;6.10;;
2544;SDS011;36212;48.838;9.142;2023-10-13T13:35:18;6.60;;;5.97;;
2544;SDS011;36212;48.838;9.142;2023-10-13T13:38:47;5.63;;;5.33;;
2544;SDS011;36212;48.838;9.142;2023-10-13T13:41:34;6.63;;;5.97;;
2544;SDS011;36212;48.838;9.142;2023-10-13T13:48:01;7.47;;;5.83;;
2544;SDS011;36212;48.838;9.142;2023-10-13T13:58:24;6.33;;;5.93;;
2544;SDS011;36212;48.838;9.142;2023-10-13T14:01:07;6.77;;;6.17;;
2544;SDS011;36212;48.838;9.142;2023-10-13T14:04:00;6.80;;;6.30;;
2544;SDS011;36212;48.838;9.142;2023-10-13T14:06:49;6.70;;;6.10;;
2544;SDS011;36212;48.838;9.142;2023-10-13T14:09:38;6.63;;;6.23;;
2544;SDS011;36212;48.838;9.142;2023-10-13T14:12:22;6.57;;;6.07;;
2544;SDS011;36212;48.838;9.142;2023-10-13T14:15:18;6.63;;;6.23;;
2544;SDS011;36212;48.838;9.142;2023-10-13T14:18:14;6.60;;;5.97;;
2544;SDS011;36212;48.838;9.142;2023-10-13T14:20:59;7.33;;;6.80;;
2544;SDS011;36212;48.838;9.142;2023-10-13T14:23:50;6.43;;;6.00;;
2544;SDS011;36212;48.838;9.142;2023-10-13T14:26:44;6.50;;;6.00;;
2544;SDS011;36212;48.838;9.142;2023-10-13T14:29:51;7.57;;;5.83;;
2544;SDS011;36212;48.838;9.142;2023-10-13T14:32:49;8.53;;;6.50;;
2544;SDS011;36212;48.838;9.142;2023-10-13T14:35:41;6.93;;;5.80;;
2544;SDS011;36212;48.838;9.142;2023-10-13T14:38:35;5.87;;;5.30;;
2544;SDS011;36212;48.838;9.142;2023-10-13T14:41:16;6.80;;;6.10;;
2544;SDS011;36212;48.838;9.142;2023-10-13T14:44:12;6.73;;;6.23;;
2544;SDS011;36212;48.838;9.142;2023-10-13T14:47:09;6.47;;;5.97;;
2544;SDS011;36212;48.838;9.142;2023-10-13T14:49:59;6.80;;;6.20;;
2544;SDS011;36212;48.838;9.142;2023-10-13T14:52:57;5.70;;;5.40;;
2544;SDS011;36212;48.838;9.142;2023-10-13T14:55:53;6.93;;;6.43;;
2544;SDS011;36212;48.838;9.142;2023-10-13T14:58:43;6.30;;;5.90;;
2544;SDS011;36212;48.838;9.142;2023-10-13T15:01:30;7.47;;;6.73;;
2544;SDS011;36212;48.838;9.142;2023-10-13T15:04:27;8.20;;;6.17;;
2544;SDS011;36212;48.838;9.142;2023-10-13T15:07:10;6.63;;;6.13;;
2544;SDS011;36212;48.838;9.142;2023-10-13T15:10:06;6.43;;;5.90;;
2544;SDS011;36212;48.838;9.142;2023-10-13T15:12:51;6.60;;;5.80;;
2544;SDS011;36212;48.838;9.142;2023-10-13T15:15:39;5.90;;;5.60;;
2544;SDS011;36212;48.838;9.142;2023-10-13T15:18:23;7.67;;;6.97;;
2544;SDS011;36212;48.838;9.142;2023-10-13T15:21:08;7.33;;;6.63;;
2544;SDS011;36212;48.838;9.142;2023-10-13T15:23:56;5.83;;;5.53;;
2544;SDS011;36212;48.838;9.142;2023-10-13T15:31:55;6.60;;;6.20;;
2544;SDS011;36212;48.838;9.142;2023-10-13T15:35:14;6.20;;;5.80;;
2544;SDS011;36212;48.838;9.142;2023-10-13T15:37:59;6.17;;;5.87;;
2544;SDS011;36212;48.838;9.142;2023-10-13T15:40:41;9.23;;;6.00;;
2544;SDS011;36212;48.838;9.142;2023-10-13T15:43:26;6.23;;;5.73;;
2544;SDS011;36212;48.838;9.142;2023-10-13T15:46:09;5.87;;;5.47;;
2544;SDS011;36212;48.838;9.142;2023-10-13T15:49:09;6.57;;;6.07;;
2544;SDS011;36212;48.838;9.142;2023-10-13T15:51:51;6.80;;;5.70;;
2544;SDS011;36212;48.838;9.142;2023-10-13T15:54:39;6.40;;;5.83;;
2544;SDS011;36212;48.838;9.142;2023-10-13T15:57:16;6.63;;;6.00;;
2544;SDS011;36212;48.838;9.142;2023-10-13T15:59:59;6.47;;;5.90;;
2544;SDS011;36212;48.838;9.142;2023-10-13T16:03:00;6.27;;;5.83;;
2544;SDS011;36212;48.838;9.142;2023-10-13T16:05:52;6.73;;;6.17;;
2544;SDS011;36212;48.838;9.142;2023-10-13T16:08:41;6.70;;;6.20;;
2544;SDS011;36212;48.838;9.142;2023-10-13T16:11:22;7.67;;;6.90;;
2544;SDS011;36212;48.838;9.142;2023-10-13T16:14:03;6.50;;;6.20;;
2544;SDS011;36212;48.838;9.142;2023-10-13T18:05:18;8.53;;;7.27;;
2544;SDS011;36212;48.838;9.142;2023-10-13T18:08:06;9.47;;;7.00;;
2544;SDS011;36212;48.838;9.142;2023-10-13T18:10:58;7.97;;;7.37;;
2544;SDS011;36212;48.838;9.142;2023-10-13T18:13:37;7.70;;;7.10;;
2544;SDS011;36212;48.838;9.142;2023-10-13T18:16:20;7.13;;;6.63;;
2544;SDS011;36212;48.838;9.142;2023-10-13T18:19:03;8.07;;;7.47;;
2544;SDS011;36212;48.838;9.142;2023-10-13T18:21:41;8.10;;;7.40;;
2544;SDS011;36212;48.838;9.142;2023-10-13T18:24:34;7.67;;;7.17;;
2544;SDS011;36212;48.838;9.142;2023-10-13T18:27:14;7.37;;;6.93;;
2544;SDS011;36212;48.838;9.142;2023-10-13T18:29:58;7.37;;;6.93;;
2544;SDS011;36212;48.838;9.142;2023-10-13T18:32:35;7.60;;;7.10;;
2544;SDS011;36212;48.838;9.142;2023-10-13T18:35:16;7.07;;;6.57;;
2544;SDS011;36212;48.838;9.142;2023-10-13T18:38:02;6.17;;;5.73;;
2544;SDS011;36212;48.838;9.142;2023-10-13T18:40:40;7.33;;;6.77;;
2544;SDS011;36212;48.838;9.142;2023-10-13T18:43:31;8.87;;;7.97;;
2544;SDS011;36212;48.838;9.142;2023-10-13T18:46:12;11.03;;;7.53;;
2544;SDS011;36212;48.838;9.142;2023-10-13T18:49:27;7.03;;;6.57;;
2544;SDS011;36212;48.838;9.142;2023-10-13T18:52:04;8.97;;;7.90;;
2544;SDS011;36212;48.838;9.142;2023-10-13T18:54:45;7.20;;;6.77;;
2544;SDS011;36212;48.838;9.142;2023-10-13T18:57:22;7.20;;;6.60;;
2544;SDS011;36212;48.838;9.142;2023-10-13T19:00:14;8.03;;;7.43;;
2544;SDS011;36212;48.838;9.142;2023-10-13T19:03:04;7.17;;;6.67;;
2544;SDS011;36212;48.838;9.142;2023-10-13T19:05:54;8.20;;;7.37;;
2544;SDS011;36212;48.838;9.142;2023-10-13T19:08:34;7.13;;;6.37;;
2544;SDS011;36212;48.838;9.142;2023-10-13T19:11:12;6.67;;;6.27;;
2544;SDS011;36212;48.838;9.142;2023-10-13T19:13:50;7.53;;;6.93;;
2544;SDS011;36212;48.838;9.142;2023-10-13T19:16:28;6.73;;;6.33;;
2544;SDS011;36212;48.838;9.142;2023-10-13T19:19:09;6.40;;;5.90;;
2544;SDS011;36212;48.838;9.142;2023-10-13T19:21:45;6.77;;;6.27;;
2544;SDS011;36212;48.838;9.142;2023-10-13T19:24:19;6.77;;;6.33;;
2544;SDS011;36212;48.838;9.142;2023-10-13T19:26:56;6.53;;;5.90;;
2544;SDS011;36212;48.838;9.142;2023-10-13T19:29:33;7.73;;;6.73;;
2544;SDS011;36212;48.838;9.142;2023-10-13T19:32:08;6.63;;;6.30;;
2544;SDS011;36212;48.838;9.142;2023-10-13T19:34:48;7.73;;;6.80;;
2544;SDS011;36212;48.838;9.142;2023-10-13T19:37:25;6.27;;;5.90;;
2544;SDS011;36212;48.838;9.142;2023-10-13T19:40:02;6.60;;;6.10;;
2544;SDS011;36212;48.838;9.142;2023-10-13T19:42:54;6.90;;;6.20;;
2544;SDS011;36212;48.838;9.142;2023-10-13T19:45:30;6.60;;;6.20;;
2544;SDS011;36212;48.838;9.142;2023-10-13T19:48:06;8.03;;;7.47;;
2544;SDS011;36212;48.838;9.142;2023-10-13T19:50:43;7.00;;;6.50;;
2544;SDS011;36212;48.838;9.142;2023-10-13T19:53:34;6.43;;;6.13;;
2544;SDS011;36212;48.838;9.142;2023-10-13T19:56:15;6.20;;;5.90;;
2544;SDS011;36212;48.838;9.142;2023-10-13T19:58:56;6.63;;;6.13;;
2544;SDS011;36212;48.838;9.142;2023-10-13T20:01:39;7.30;;;6.70;;
2544;SDS011;36212;48.838;9.142;2023-10-13T20:04:19;6.80;;;6.30;;
2544;SDS011;36212;48.838;9.142;2023-10-13T20:07:03;7.00;;;6.30;;
2544;SDS011;36212;48.838;9.142;2023-10-13T20:09:52;7.53;;;7.03;;
2544;SDS011;36212;48.838;9.142;2023-10-13T20:12:27;7.07;;;6.50;;
2544;SDS011;36212;48.838;9.142;2023-10-13T20:15:02;7.17;;;6.70;;
2544;SDS011;36212;48.838;9.142;2023-10-13T20:17:46;6.40;;;5.90;;
2544;SDS011;36212;48.838;9.142;2023-10-13T20:20:25;7.27;;;6.77;;